createdAt,value
2023-01-20T00:01:24.833Z,6.68
2023-01-20T00:03:53.850Z,10.43
2023-01-20T00:06:36.071Z,7.78
2023-01-20T00:09:05.140Z,7.85
2023-01-20T00:11:32.612Z,5.72
2023-01-20T00:14:02.076Z,6.72
2023-01-20T00:16:31.992Z,7.72
2023-01-20T00:18:59.274Z,6.07
2023-01-20T00:21:26.086Z,5.97
2023-01-20T00:23:53.099Z,5.88
2023-01-20T00:26:22.411Z,7.88
2023-01-20T00:28:50.280Z,8.27
2023-01-20T00:31:21.423Z,9.38
2023-01-20T00:33:49.998Z,4.55
2023-01-20T00:36:18.665Z,6.20
2023-01-20T00:38:45.532Z,9.15
2023-01-20T00:41:12.641Z,7.47
2023-01-20T00:43:39.560Z,9.05
2023-01-20T00:46:07.213Z,8.82
2023-01-20T00:48:34.722Z,6.25
2023-01-20T00:51:02.850Z,5.70
2023-01-20T00:53:29.764Z,6.65
2023-01-20T00:55:56.693Z,7.32
2023-01-20T00:58:23.659Z,5.93
2023-01-20T01:00:52.248Z,7.60
2023-01-20T01:03:19.174Z,5.47
2023-01-20T01:05:46.615Z,6.93
2023-01-20T01:08:14.325Z,5.22
2023-01-20T01:10:41.222Z,7.80
2023-01-20T01:13:08.675Z,5.57
2023-01-20T01:15:35.972Z,7.47
2023-01-20T01:18:03.108Z,5.35
2023-01-20T01:20:30.540Z,8.07
2023-01-20T01:22:57.449Z,5.47
2023-01-20T01:25:24.286Z,6.38
2023-01-20T01:27:51.144Z,5.95
2023-01-20T01:30:18.129Z,6.32
2023-01-20T01:32:45.035Z,8.20
2023-01-20T01:35:12.413Z,6.90
2023-01-20T01:37:39.418Z,5.70
2023-01-20T01:40:07.082Z,5.80
2023-01-20T01:42:33.979Z,6.82
2023-01-20T01:45:13.862Z,8.77
2023-01-20T01:47:46.378Z,7.53
2023-01-20T01:50:24.254Z,8.02
2023-01-20T01:52:54.369Z,5.63
2023-01-20T01:55:25.272Z,9.40
2023-01-20T01:57:52.662Z,10.40
2023-01-20T02:00:20.662Z,5.80
2023-01-20T02:02:47.644Z,6.32
2023-01-20T02:05:17.713Z,7.25
2023-01-20T02:07:47.059Z,5.60
2023-01-20T02:10:14.293Z,5.28
2023-01-20T02:12:43.581Z,5.60
2023-01-20T02:15:10.782Z,6.40
2023-01-20T02:17:50.553Z,6.70
2023-01-20T02:20:41.964Z,5.72
2023-01-20T02:23:33.271Z,6.95
2023-01-20T02:26:02.749Z,5.55
2023-01-20T02:29:06.034Z,7.20
2023-01-20T02:32:09.282Z,6.07
2023-01-20T02:34:59.236Z,4.88
2023-01-20T02:37:29.832Z,5.65
2023-01-20T02:40:08.690Z,6.65
2023-01-20T02:42:41.340Z,6.45
2023-01-20T02:45:37.762Z,6.72
2023-01-20T02:48:33.654Z,4.93
2023-01-20T02:51:09.077Z,3.30
2023-01-20T02:53:48.992Z,3.60
2023-01-20T02:56:17.188Z,3.60
2023-01-20T02:59:01.075Z,4.03
2023-01-20T03:01:39.908Z,2.25
2023-01-20T03:04:10.349Z,3.42
2023-01-20T03:06:42.973Z,2.45
2023-01-20T03:09:13.385Z,3.58
2023-01-20T03:11:48.019Z,3.88
2023-01-20T03:14:15.730Z,3.42
2023-01-20T03:16:43.330Z,2.00
2023-01-20T03:19:10.627Z,4.50
2023-01-20T03:21:37.583Z,3.88
2023-01-20T03:24:05.680Z,2.88
2023-01-20T03:26:33.682Z,5.43
2023-01-20T03:29:06.689Z,5.80
2023-01-20T03:31:42.824Z,4.57
2023-01-20T03:34:18.211Z,1.75
2023-01-20T03:36:46.312Z,2.55
2023-01-20T03:39:13.823Z,1.85
2023-01-20T03:41:43.351Z,4.75
2023-01-20T03:44:16.896Z,2.70
2023-01-20T03:47:08.843Z,2.75
2023-01-20T03:50:05.530Z,2.33
2023-01-20T03:52:46.980Z,2.60
2023-01-20T03:55:24.160Z,2.42
2023-01-20T03:58:11.737Z,2.45
2023-01-20T04:00:43.379Z,3.65
2023-01-20T04:03:26.417Z,2.83
2023-01-20T04:08:24.467Z,3.17
2023-01-20T04:10:53.303Z,4.10
2023-01-20T04:13:20.044Z,3.15
2023-01-20T04:15:47.056Z,4.18
2023-01-20T04:18:19.329Z,3.47
2023-01-20T04:20:51.730Z,3.88
2023-01-20T04:23:38.961Z,4.03
2023-01-20T04:26:06.092Z,7.47
2023-01-20T04:28:32.977Z,3.72
2023-01-20T04:31:00.054Z,2.35
2023-01-20T04:33:27.076Z,3.90
2023-01-20T04:35:53.843Z,2.85
2023-01-20T04:38:20.660Z,3.13
2023-01-20T04:40:47.458Z,5.82
2023-01-20T04:43:14.401Z,3.58
2023-01-20T04:45:42.064Z,4.18
2023-01-20T04:48:09.806Z,4.53
2023-01-20T04:50:40.923Z,5.18
2023-01-20T04:53:11.690Z,6.82
2023-01-20T04:55:38.536Z,3.38
2023-01-20T04:58:05.405Z,2.50
2023-01-20T05:00:32.189Z,3.70
2023-01-20T05:02:59.168Z,2.78
2023-01-20T05:05:26.091Z,3.42
2023-01-20T05:07:53.819Z,3.47
2023-01-20T05:10:21.232Z,4.35
2023-01-20T05:12:48.005Z,2.72
2023-01-20T05:15:15.219Z,4.30
2023-01-20T05:17:42.362Z,3.42
2023-01-20T05:20:10.065Z,3.03
2023-01-20T05:22:37.111Z,5.05
2023-01-20T05:25:04.201Z,4.32
2023-01-20T05:27:31.045Z,4.13
2023-01-20T05:29:57.829Z,4.53
2023-01-20T05:32:24.628Z,5.57
2023-01-20T05:34:51.427Z,4.03
2023-01-20T05:37:18.884Z,3.97
2023-01-20T05:39:45.724Z,4.38
2023-01-20T05:42:12.539Z,4.82
2023-01-20T05:44:39.300Z,4.95
2023-01-20T05:47:06.077Z,4.32
2023-01-20T05:49:32.927Z,6.47
2023-01-20T05:51:59.871Z,6.57
2023-01-20T05:54:26.684Z,7.30
2023-01-20T05:56:53.500Z,8.60
2023-01-20T05:59:20.300Z,8.70
2023-01-20T06:01:47.241Z,6.28
2023-01-20T06:04:13.997Z,5.85
2023-01-20T06:06:40.980Z,6.53
2023-01-20T06:09:07.854Z,6.95
2023-01-20T06:11:34.676Z,10.70
2023-01-20T06:14:01.501Z,4.70
2023-01-20T06:16:29.912Z,6.43
2023-01-20T06:18:57.670Z,10.18
2023-01-20T06:21:25.522Z,10.38
2023-01-20T06:23:54.865Z,7.55
2023-01-20T06:26:21.933Z,6.40
2023-01-20T06:28:48.979Z,5.57
2023-01-20T06:31:16.833Z,5.75
2023-01-20T06:33:44.064Z,7.10
2023-01-20T06:36:13.837Z,6.32
2023-01-20T06:38:40.863Z,5.03
2023-01-20T06:41:10.820Z,5.55
2023-01-20T06:43:40.301Z,7.93
2023-01-20T06:46:10.434Z,5.75
2023-01-20T06:48:37.531Z,8.85
2023-01-20T06:51:06.902Z,9.50
2023-01-20T06:53:34.401Z,8.48
2023-01-20T06:56:01.655Z,6.88
2023-01-20T06:58:31.633Z,7.55
2023-01-20T07:03:45.289Z,6.43
2023-01-20T07:06:25.308Z,8.32
2023-01-20T07:08:54.261Z,10.25
2023-01-20T07:11:23.494Z,7.28
2023-01-20T07:13:50.958Z,9.35
2023-01-20T07:16:18.349Z,7.93
2023-01-20T07:18:49.884Z,9.60
2023-01-20T07:35:10.596Z,5.63
2023-01-20T08:14:28.867Z,9.35
2023-01-20T08:16:56.568Z,10.07
2023-01-20T08:22:09.102Z,8.10
2023-01-20T08:32:51.157Z,11.30
2023-01-20T08:49:15.512Z,10.07
2023-01-20T08:51:45.423Z,8.73
2023-01-20T08:54:15.624Z,8.18
2023-01-20T08:56:43.161Z,8.57
2023-01-20T08:59:13.353Z,7.90
2023-01-20T09:01:44.157Z,7.38
2023-01-20T09:04:15.596Z,8.32
2023-01-20T09:07:07.994Z,7.67
2023-01-20T09:09:39.453Z,9.60
2023-01-20T09:12:09.557Z,10.07
2023-01-20T09:14:51.268Z,8.68
2023-01-20T09:17:19.610Z,8.93
2023-01-20T09:19:47.381Z,9.75
2023-01-20T09:22:19.220Z,8.73
2023-01-20T09:24:46.667Z,8.15
2023-01-20T09:27:15.951Z,6.60
2023-01-20T09:29:52.423Z,5.00
2023-01-20T09:32:22.837Z,8.27
2023-01-20T09:34:52.447Z,13.32
2023-01-20T09:37:38.040Z,7.63
2023-01-20T09:40:23.823Z,6.85
2023-01-20T09:43:35.539Z,8.05
2023-01-20T09:46:26.945Z,12.40
2023-01-20T09:49:37.751Z,8.85
2023-01-20T09:52:51.980Z,12.77
2023-01-20T09:55:28.801Z,11.40
2023-01-20T09:58:11.388Z,9.93
2023-01-20T10:03:44.592Z,10.75
2023-01-20T10:06:18.474Z,7.40
2023-01-20T10:09:04.827Z,6.68
2023-01-20T10:11:43.061Z,6.72
2023-01-20T10:14:23.110Z,8.98
2023-01-20T10:17:18.942Z,9.70
2023-01-20T10:20:47.653Z,12.52
2023-01-20T10:23:24.822Z,26.45
2023-01-20T10:26:06.387Z,20.25
2023-01-20T10:28:38.814Z,22.83
2023-01-20T10:33:44.355Z,24.83
2023-01-20T10:36:20.122Z,18.13
2023-01-20T10:38:58.839Z,15.90
2023-01-20T10:41:44.140Z,14.68
2023-01-20T10:44:15.518Z,13.48
2023-01-20T10:46:54.453Z,11.80
2023-01-20T10:49:21.377Z,13.00
2023-01-20T10:52:10.376Z,11.32
2023-01-20T10:54:37.271Z,12.55
2023-01-20T10:57:10.795Z,12.25
2023-01-20T10:59:52.106Z,11.07
2023-01-20T11:02:26.469Z,10.00
2023-01-20T11:05:01.356Z,9.48
2023-01-20T11:07:32.622Z,12.02
2023-01-20T11:10:13.792Z,15.70
2023-01-20T11:12:43.117Z,8.93
2023-01-20T11:15:26.534Z,9.77
2023-01-20T11:18:20.498Z,10.75
2023-01-20T11:21:09.983Z,15.00
2023-01-20T11:24:07.587Z,12.68
2023-01-20T11:26:38.669Z,10.02
2023-01-20T11:29:11.810Z,13.48
2023-01-20T11:31:45.207Z,9.70
2023-01-20T11:34:33.400Z,10.27
2023-01-20T11:37:08.788Z,10.93
2023-01-20T11:40:04.097Z,9.85
2023-01-20T11:42:43.310Z,10.90
2023-01-20T11:45:28.756Z,12.60
2023-01-20T11:48:05.672Z,11.63
2023-01-20T11:50:59.029Z,12.52
2023-01-20T11:53:33.917Z,10.07
2023-01-20T11:56:20.284Z,9.82
2023-01-20T11:58:59.979Z,9.90
2023-01-20T12:01:29.241Z,12.25
2023-01-20T12:04:23.013Z,13.57
2023-01-20T12:07:00.900Z,6.28
2023-01-20T12:09:37.728Z,7.13
2023-01-20T12:12:21.065Z,7.95
2023-01-20T12:15:06.280Z,8.15
2023-01-20T12:17:45.532Z,5.03
2023-01-20T12:20:24.801Z,9.63
2023-01-20T12:23:21.177Z,7.90
2023-01-20T12:26:03.065Z,7.22
2023-01-20T12:28:52.801Z,4.55
2023-01-20T12:31:21.870Z,4.97
2023-01-20T12:33:52.035Z,6.80
2023-01-20T12:36:25.120Z,5.07
2023-01-20T12:39:38.637Z,4.32
2023-01-20T12:42:57.907Z,3.17
2023-01-20T12:45:58.052Z,3.72
2023-01-20T12:48:25.414Z,4.38
2023-01-20T12:51:42.452Z,4.90
2023-01-20T12:54:48.823Z,7.50
2023-01-20T12:57:44.722Z,5.30
2023-01-20T13:00:35.761Z,5.93
2023-01-20T13:03:29.770Z,3.00
2023-01-20T13:06:38.066Z,5.20
2023-01-20T13:09:18.834Z,5.57
2023-01-20T13:12:24.662Z,3.03
2023-01-20T13:15:17.183Z,6.97
2023-01-20T13:18:08.455Z,4.20
2023-01-20T13:20:41.242Z,5.45
2023-01-20T13:23:19.681Z,3.38
2023-01-20T13:25:48.421Z,3.90
2023-01-20T13:28:25.921Z,5.32
2023-01-20T13:30:58.595Z,3.53
2023-01-20T13:33:42.581Z,4.32
2023-01-20T13:36:27.850Z,3.35
2023-01-20T13:39:48.537Z,4.50
2023-01-20T13:42:35.252Z,3.67
2023-01-20T13:48:23.849Z,3.17
2023-01-20T13:50:54.640Z,4.07
2023-01-20T13:53:23.807Z,4.57
2023-01-20T13:56:05.661Z,3.67
2023-01-20T13:58:37.316Z,3.35
2023-01-20T14:04:19.275Z,6.13
2023-01-20T14:07:02.988Z,3.92
2023-01-20T14:09:40.627Z,10.45
2023-01-20T14:12:09.397Z,4.90
2023-01-20T14:14:49.319Z,4.18
2023-01-20T14:17:22.112Z,6.80
2023-01-20T14:19:58.215Z,3.63
2023-01-20T14:22:30.947Z,5.78
2023-01-20T14:25:06.805Z,3.35
2023-01-20T14:27:39.712Z,2.95
2023-01-20T14:30:22.402Z,4.93
2023-01-20T14:33:08.015Z,4.95
2023-01-20T14:35:42.373Z,3.25
2023-01-20T14:38:21.861Z,5.00
2023-01-20T14:40:50.253Z,16.27
2023-01-20T14:43:28.076Z,17.63
2023-01-20T14:45:57.528Z,6.13
2023-01-20T14:48:34.394Z,5.10
2023-01-20T14:51:06.492Z,6.10
2023-01-20T14:53:42.344Z,6.63
2023-01-20T15:02:03.475Z,7.50
2023-01-20T15:13:02.335Z,8.27
2023-01-20T15:15:36.368Z,7.63
2023-01-20T15:18:20.185Z,11.63
2023-01-20T15:21:11.692Z,8.27
2023-01-20T15:24:27.917Z,9.55
2023-01-20T15:26:58.307Z,9.05
2023-01-20T15:29:27.926Z,12.32
2023-01-20T15:31:57.803Z,10.90
2023-01-20T15:34:27.649Z,10.38
2023-01-20T15:36:57.585Z,7.82
2023-01-20T15:39:54.561Z,19.45
2023-01-20T15:42:24.113Z,13.18
2023-01-20T15:51:03.273Z,16.58
2023-01-20T15:53:33.628Z,18.23
2023-01-20T15:56:05.479Z,28.85
2023-01-20T15:58:34.343Z,14.52
2023-01-20T16:03:49.773Z,13.88
2023-01-20T16:09:21.325Z,11.10
2023-01-20T16:14:40.760Z,10.70
2023-01-20T16:25:39.621Z,11.38
2023-01-20T16:28:27.375Z,11.73
2023-01-20T16:31:01.444Z,11.00
2023-01-20T16:33:31.112Z,14.98
2023-01-20T16:36:11.092Z,13.57
2023-01-20T16:41:30.845Z,15.18
2023-01-20T16:43:59.738Z,14.60
2023-01-20T16:46:30.435Z,13.73
2023-01-20T16:48:59.783Z,12.52
2023-01-20T16:51:28.059Z,13.35
2023-01-20T16:53:59.327Z,13.43
2023-01-20T16:56:28.730Z,18.42
2023-01-20T16:59:16.283Z,15.15
2023-01-20T17:01:52.075Z,29.00
2023-01-20T17:04:20.383Z,22.75
2023-01-20T17:06:48.552Z,21.20
2023-01-20T17:09:15.642Z,11.57
2023-01-20T17:11:45.507Z,14.02
2023-01-20T17:14:22.487Z,11.73
2023-01-20T17:19:36.046Z,13.85
2023-01-20T17:22:17.110Z,15.43
2023-01-20T17:24:45.050Z,14.02
2023-01-20T17:27:13.235Z,22.88
2023-01-20T17:29:40.365Z,16.10
2023-01-20T17:34:49.338Z,14.90
2023-01-20T17:37:19.020Z,15.73
2023-01-20T17:39:47.232Z,11.32
2023-01-20T17:45:25.373Z,11.52
2023-01-20T17:47:53.409Z,14.35
2023-01-20T17:50:21.986Z,12.82
2023-01-20T17:52:50.713Z,12.18
2023-01-20T17:55:18.156Z,15.35
2023-01-20T17:57:46.724Z,10.98
2023-01-20T18:00:15.742Z,10.98
2023-01-20T18:02:42.825Z,13.63
2023-01-20T18:05:10.795Z,10.27
2023-01-20T18:07:38.491Z,9.60
2023-01-20T18:10:16.960Z,8.57
2023-01-20T18:12:44.179Z,7.55
2023-01-20T18:15:11.487Z,9.55
2023-01-20T18:17:40.770Z,15.93
2023-01-20T18:20:09.483Z,15.75
2023-01-20T18:22:37.902Z,9.35
2023-01-20T18:25:07.918Z,11.13
2023-01-20T18:27:36.121Z,8.57
2023-01-20T18:30:04.754Z,7.93
2023-01-20T18:32:34.111Z,9.57
2023-01-20T18:35:03.014Z,8.18
2023-01-20T18:40:20.005Z,6.63
2023-01-20T18:42:51.622Z,4.57
2023-01-20T18:45:18.463Z,6.93
2023-01-20T18:47:51.028Z,6.25
2023-01-20T18:50:18.669Z,4.50
2023-01-20T18:52:46.813Z,5.88
2023-01-20T18:55:14.170Z,7.32
2023-01-20T18:57:41.544Z,10.98
2023-01-20T19:00:09.115Z,10.15
2023-01-20T19:02:36.241Z,8.93
2023-01-20T19:07:54.009Z,13.50
2023-01-20T19:10:35.679Z,9.98
2023-01-20T19:13:05.551Z,25.20
2023-01-20T19:15:33.782Z,24.60
2023-01-20T19:18:04.655Z,12.82
2023-01-20T19:20:38.728Z,5.60
2023-01-20T19:23:06.543Z,12.32
2023-01-20T19:25:33.480Z,7.32
2023-01-20T19:28:12.865Z,4.68
2023-01-20T19:33:20.918Z,4.78
2023-01-20T19:35:48.108Z,7.95
2023-01-20T19:38:15.747Z,6.63
2023-01-20T19:40:47.305Z,6.45
2023-01-20T19:43:15.706Z,4.07
2023-01-20T19:45:46.001Z,3.65
2023-01-20T19:48:35.096Z,4.32
2023-01-20T19:51:06.285Z,11.20
2023-01-20T19:53:38.644Z,8.45
2023-01-20T19:56:10.938Z,4.93
2023-01-20T20:01:17.323Z,9.40
2023-01-20T20:03:44.890Z,4.28
2023-01-20T20:11:38.755Z,4.25
2023-01-20T20:14:08.224Z,5.32
2023-01-20T20:16:38.023Z,3.28
2023-01-20T20:19:08.981Z,4.75
2023-01-20T20:21:37.524Z,4.50
2023-01-20T20:24:26.958Z,4.93
2023-01-20T20:26:54.611Z,5.70
2023-01-20T20:29:21.768Z,4.60
2023-01-20T20:31:53.859Z,7.72
2023-01-20T20:34:20.926Z,7.88
2023-01-20T20:36:49.298Z,7.40
2023-01-20T20:39:18.571Z,10.13
2023-01-20T20:41:46.700Z,14.70
2023-01-20T20:44:14.163Z,10.80
2023-01-20T20:46:42.773Z,9.07
2023-01-20T20:49:17.369Z,7.28
2023-01-20T20:51:45.801Z,10.05
2023-01-20T20:54:22.051Z,7.68
2023-01-20T20:56:49.480Z,7.22
2023-01-20T20:59:17.971Z,8.88
2023-01-20T21:01:46.727Z,7.43
2023-01-20T21:04:15.255Z,8.02
2023-01-20T21:06:42.636Z,7.75
2023-01-20T21:09:11.417Z,7.97
2023-01-20T21:11:41.513Z,6.63
2023-01-20T21:14:25.764Z,8.25
2023-01-20T21:16:54.745Z,5.93
2023-01-20T21:19:21.948Z,6.88
2023-01-20T21:24:32.864Z,6.85
2023-01-20T21:27:02.359Z,6.97
2023-01-20T21:29:30.455Z,6.88
2023-01-20T21:31:58.415Z,9.80
2023-01-20T21:34:30.878Z,9.68
2023-01-20T21:39:38.913Z,8.18
2023-01-20T21:42:34.068Z,14.75
2023-01-20T21:47:53.698Z,8.40
2023-01-20T21:50:40.141Z,6.55
2023-01-20T21:53:31.799Z,5.72
2023-01-20T21:56:07.547Z,5.80
2023-01-20T21:58:35.893Z,4.85
2023-01-20T22:01:04.538Z,4.47
2023-01-20T22:03:31.428Z,4.13
2023-01-20T22:06:02.430Z,4.82
2023-01-20T22:08:32.883Z,8.90
2023-01-20T22:11:03.580Z,4.25
2023-01-20T22:13:30.469Z,6.30
2023-01-20T22:16:02.265Z,6.38
2023-01-20T22:18:31.351Z,5.63
2023-01-20T22:21:07.923Z,5.55
2023-01-20T22:26:10.128Z,6.00
2023-01-20T22:28:41.226Z,8.65
2023-01-20T22:31:10.818Z,6.72
2023-01-20T22:33:38.186Z,5.60
2023-01-20T22:36:06.543Z,6.78
2023-01-20T22:38:43.604Z,4.95
2023-01-20T22:41:29.535Z,3.65
2023-01-20T22:43:56.700Z,4.93
2023-01-20T22:46:25.444Z,5.78
2023-01-20T22:48:52.725Z,2.40
2023-01-20T22:51:24.881Z,2.13
2023-01-20T22:53:56.921Z,1.30
2023-01-20T22:56:30.016Z,1.60
2023-01-20T22:58:58.520Z,1.35
2023-01-20T23:01:28.777Z,1.73
2023-01-20T23:03:57.641Z,1.08
2023-01-20T23:06:25.833Z,2.55
2023-01-20T23:08:52.776Z,0.95
2023-01-20T23:11:21.505Z,0.50
2023-01-20T23:13:48.916Z,0.38
2023-01-20T23:16:20.255Z,2.00
2023-01-20T23:18:48.097Z,1.02
2023-01-20T23:21:15.579Z,1.58
2023-01-20T23:23:42.649Z,0.68
2023-01-20T23:26:15.551Z,0.95
2023-01-20T23:28:43.779Z,0.30
2023-01-20T23:31:13.239Z,1.10
2023-01-20T23:33:43.217Z,0.55
2023-01-20T23:36:22.095Z,0.85
2023-01-20T23:38:49.017Z,0.85
2023-01-20T23:41:16.226Z,0.95
2023-01-20T23:43:43.162Z,0.95
2023-01-20T23:46:10.647Z,2.85
2023-01-20T23:48:38.423Z,0.75
2023-01-20T23:51:06.443Z,0.77
2023-01-20T23:53:36.866Z,0.95
2023-01-20T23:56:06.633Z,3.00
2023-01-20T23:58:33.771Z,0.70
